Latest Weather Observations for Moranbah Airport

IDQ60801

Issued at 6:06 pm EST Saturday 31 January 2015 (issued every 30 minutes, with the page automatically refreshed every 10 minutes)

About weather observations | Map of weather stations | Latest weather observations for QLD | Other Formats
Station Details ID: 034035 Name: MORANBAH AIRPORT Lat: -22.06 Lon: 148.08 Height: 232.2 m
Data from the previous 72 hours. | See also: Recent months at Moranbah Airport
Date/Time
EST
Temp
°C
App
Temp
°C
Dew
Point
Rel
Hum
%
Delta-T
°C
Wind Press
QNH
hPa
Press
MSL
hPa
Rain
since 9 am
mm
Dir
 
Spd
km/h
Gust
km/h
Spd
kts
Gust
kts
31/06:00pm 31.9 32.9 17.8 43 9.1 E 9 13 5 7 1005.7 1004.1 0.0
31/05:30pm 32.7 31.9 16.1 37 10.5 E 15 19 8 10 1005.5 1003.9 0.0
31/05:00pm 33.3 33.1 16.6 36 10.7 ENE 13 17 7 9 1005.4 1003.8 0.0
31/04:30pm 33.2 33.0 15.7 35 11.1 ESE 11 17 6 9 1005.3 1003.7 0.0
31/04:00pm 32.8 33.3 14.9 34 11.2 NNW 6 13 3 7 1005.3 1003.7 0.0
31/03:30pm 33.7 34.2 16.5 35 11.0 NE 9 11 5 6 1005.6 1004.0 0.0
31/03:00pm 33.1 33.6 15.6 35 11.0 NE 7 13 4 7 1005.9 1004.3 0.0
31/02:30pm 33.4 33.1 14.5 32 11.8 S 9 15 5 8 1006.3 1004.7 0.0
31/02:00pm 34.0 33.6 14.0 30 12.4 S 9 17 5 9 1006.7 1005.1 0.0
31/01:30pm 32.9 33.8 17.5 39 10.0 ENE 9 13 5 7 1007.2 1005.6 0.0
31/01:00pm 32.0 32.4 16.3 39 10.0 E 9 19 5 10 1007.6 1006.0 0.0
31/12:30pm 32.1 32.5 16.4 39 10.0 SE 9 13 5 7 1008.0 1006.3 0.0
31/12:00pm 31.5 31.4 15.9 39 9.8 NNE 11 19 6 10 1008.4 1006.7 0.0
31/11:30am 31.1 32.2 16.7 42 9.2 ENE 6 11 3 6 1008.9 1007.3 0.0
31/11:00am 30.6 31.8 18.3 47 8.0 NE 9 17 5 9 1009.3 1007.7 0.0
31/10:30am 30.3 32.2 19.0 50 7.4 N 7 17 4 9 1009.7 1008.1 0.0
31/10:00am 29.2 31.1 18.9 53 6.7 ENE 7 11 4 6 1009.9 1008.3 0.0
31/09:30am 28.4 31.0 20.4 62 5.3 NE 7 9 4 5 1010.0 1008.4 0.0
31/09:00am 27.5 30.2 20.3 65 4.8 N 6 9 3 5 1009.9 1008.3 0.0
31/08:30am 26.5 29.1 20.1 68 4.2 NNW 6 11 3 6 1009.8 1008.2 0.0
31/08:00am 25.9 30.2 21.1 75 3.2 CALM 0 0 0 0 1009.9 1008.3 0.0
31/07:30am 24.5 28.2 21.4 83 2.1 SE 4 6 2 3 1009.8 1008.2 0.0
31/07:00am 22.5 26.8 21.1 92 0.9 CALM 0 0 0 0 1009.7 1008.1 0.0
31/06:30am 21.0 24.7 20.0 94 0.6 CALM 0 0 0 0 1009.4 1007.8 0.0
31/06:00am 20.5 22.9 19.7 95 0.5 SSW 6 7 3 4 1009.1 1007.5 0.0
31/05:30am 20.6 23.1 19.8 95 0.5 SSW 6 9 3 5 1008.7 1007.0 0.0
31/05:00am 20.6 22.5 19.8 95 0.5 SSE 9 11 5 6 1008.3 1006.6 0.0
31/04:30am 20.9 23.0 20.1 95 0.5 SSE 9 9 5 5 1008.1 1006.4 0.0
31/04:00am 21.0 23.1 20.2 95 0.5 SSW 9 11 5 6 1008.0 1006.3 0.0
31/03:30am 20.5 23.5 19.2 92 0.8 SSE 2 9 1 5 1007.9 1006.2 0.0
31/03:00am 20.7 22.3 19.2 91 1.0 SE 9 11 5 6 1007.8 1006.1 0.0
31/02:30am 21.6 24.2 20.1 91 1.0 SSE 6 7 3 4 1007.9 1006.2 0.0
31/02:05am 21.5 23.6 20.1 92 0.9 S 9 11 5 6 1007.9 1006.2 0.0
31/02:00am 21.2 23.4 19.7 91 1.0 SSW 7 11 4 6 1007.8 1006.1 0.0
31/01:38am 21.3 24.7 19.4 89 1.2 CALM 0 0 0 0 1007.8 1006.1 0.0
31/01:30am 21.5 24.6 19.6 89 1.2 ESE 2 7 1 4 1007.8 1006.1 0.0
31/01:00am 22.3 24.7 20.0 87 1.5 SSE 7 9 4 5 1008.0 1006.3 0.0
31/12:30am 22.5 24.5 20.0 86 1.6 S 9 9 5 5 1008.1 1006.4 0.0
31/12:00am 22.5 26.1 19.7 84 1.8 CALM 0 6 0 3 1008.4 1006.7 0.0
 
Date/Time
EST
Temp
°C
App
Temp
°C
Dew
Point
Rel
Hum
%
Delta-T
°C
Wind Press
QNH
hPa
Press
MSL
hPa
Rain
since 9 am
mm
Dir
 
Spd
km/h
Gust
km/h
Spd
kts
Gust
kts
30/11:30pm 23.5 25.6 20.2 82 2.2 NNE 9 13 5 7 1008.3 1006.6 0.0
30/11:00pm 23.9 25.3 20.4 81 2.3 NE 13 17 7 9 1008.5 1006.8 0.0
30/10:30pm 24.1 25.6 20.6 81 2.3 E 13 15 7 8 1008.8 1007.2 0.0
30/10:00pm 24.6 26.5 20.5 78 2.7 ENE 11 17 6 9 1008.7 1007.0 0.0
30/09:30pm 25.4 26.1 20.4 74 3.3 NE 17 22 9 12 1008.4 1006.7 0.0
30/09:00pm 25.7 26.7 20.3 72 3.6 NE 15 20 8 11 1008.1 1006.4 0.0
30/08:30pm 26.0 26.8 19.9 69 4.0 ENE 15 20 8 11 1007.9 1006.2 0.0
30/08:00pm 25.4 26.3 18.3 65 4.5 ESE 11 11 6 6 1007.4 1005.8 0.0
30/07:30pm 25.9 26.5 17.8 61 5.1 E 11 11 6 6 1007.2 1005.6 0.0
30/07:00pm 27.5 28.0 17.4 54 6.4 ESE 11 13 6 7 1007.0 1005.4 0.0
30/06:30pm 29.5 30.1 17.7 49 7.6 ESE 11 15 6 8 1006.6 1005.0 0.0
30/06:00pm 30.8 29.9 16.8 43 8.9 ESE 17 24 9 13 1006.1 1004.5 0.0
30/05:30pm 31.6 30.8 17.1 41 9.3 ESE 17 24 9 13 1005.7 1004.1 0.0
30/05:00pm 32.2 30.8 16.5 39 10.0 SE 19 32 10 17 1005.5 1003.9 0.0
30/04:30pm 32.0 31.0 16.7 40 9.7 ESE 17 26 9 14 1005.4 1003.8 0.0
30/04:00pm 32.4 32.3 17.8 41 9.5 E 15 24 8 13 1005.5 1003.9 0.0
30/03:30pm 32.2 32.0 18.4 44 9.0 ESE 17 28 9 15 1005.7 1004.1 0.0
30/03:00pm 31.4 30.2 16.2 40 9.6 ESE 17 28 9 15 1006.0 1004.4 0.0
30/02:30pm 32.0 31.8 18.6 45 8.8 ESE 17 28 9 15 1006.4 1004.8 0.0
30/02:00pm 31.2 30.8 17.1 42 9.0 E 15 24 8 13 1006.8 1005.2 0.0
30/01:30pm 31.5 32.4 19.2 48 8.1 E 13 22 7 12 1007.2 1005.6 0.0
30/01:00pm 31.5 33.4 21.4 55 6.9 E 13 20 7 11 1007.6 1006.0 0.0
30/12:30pm 31.0 31.3 19.7 51 7.5 E 17 22 9 12 1008.1 1006.4 0.0
30/12:00pm 30.2 30.3 19.2 51 7.2 E 17 26 9 14 1008.5 1006.8 0.0
30/11:30am 30.2 31.6 21.0 58 6.2 E 15 24 8 13 1009.0 1007.4 0.0
30/11:00am 28.4 28.7 19.6 59 5.8 E 17 26 9 14 1009.3 1007.7 0.0
30/10:30am 29.1 30.5 21.8 64 5.0 E 17 24 9 13 1009.5 1007.9 0.0
30/10:00am 26.7 28.0 20.8 70 3.9 ENE 15 20 8 11 1009.7 1008.1 0.0
30/09:30am 27.6 28.5 20.9 67 4.5 E 17 22 9 12 1009.6 1008.0 0.0
30/09:00am 26.9 28.8 21.4 72 3.7 E 13 20 7 11 1009.6 1008.0 0.0
30/08:30am 25.7 27.0 20.9 75 3.2 ESE 15 22 8 12 1009.5 1007.9 0.0
30/08:00am 25.0 26.2 21.5 81 2.3 ESE 17 20 9 11 1009.4 1007.8 0.0
30/07:30am 23.9 24.8 21.6 87 1.5 SE 19 24 10 13 1009.2 1007.6 0.0
30/07:00am 22.9 25.0 21.7 93 0.8 SE 13 17 7 9 1009.2 1007.6 0.0
30/06:30am 22.4 24.5 21.7 96 0.5 SE 13 17 7 9 1008.9 1007.3 0.0
30/06:00am 21.8 24.1 21.3 97 0.3 SE 11 15 6 8 1008.3 1006.6 0.0
30/05:30am 21.2 23.4 20.5 96 0.5 SE 9 11 5 6 1007.6 1006.0 0.0
30/05:00am 21.4 23.7 20.7 96 0.5 SE 9 11 5 6 1007.3 1005.7 0.0
30/04:30am 21.8 24.3 21.1 96 0.5 SE 9 11 5 6 1007.0 1005.4 0.0
30/04:00am 22.1 24.0 21.4 96 0.5 SE 13 15 7 8 1007.0 1005.4 0.0
30/03:30am 22.0 24.2 21.2 95 0.5 SE 11 15 6 8 1006.9 1005.3 0.0
30/03:00am 22.2 24.5 21.4 95 0.5 SE 11 13 6 7 1006.7 1005.1 0.0
30/02:30am 22.2 24.2 21.5 96 0.5 SE 13 15 7 8 1007.0 1005.4 0.0
30/02:00am 22.2 24.5 21.4 95 0.5 SSE 11 11 6 6 1007.3 1005.7 0.0
30/01:30am 22.5 24.5 21.5 94 0.7 SE 13 15 7 8 1007.6 1006.0 0.0
30/01:00am 22.7 25.1 21.5 93 0.8 SSE 11 13 6 7 1008.0 1006.3 0.0
30/12:30am 22.8 25.1 21.4 92 0.9 SSE 11 13 6 7 1008.1 1006.4 0.0
30/12:00am 22.9 25.7 21.5 92 0.9 ESE 9 13 5 7 1008.3 1006.6 0.0
 
Date/Time
EST
Temp
°C
App
Temp
°C
Dew
Point
Rel
Hum
%
Delta-T
°C
Wind Press
QNH
hPa
Press
MSL
hPa
Rain
since 9 am
mm
Dir
 
Spd
km/h
Gust
km/h
Spd
kts
Gust
kts
29/11:30pm 23.0 25.9 21.1 89 1.3 E 7 11 4 6 1008.5 1006.8 0.0
29/11:00pm 23.6 26.0 21.5 88 1.4 ENE 11 13 6 7 1008.6 1006.9 0.0
29/10:30pm 23.8 26.7 21.7 88 1.4 NE 9 11 5 6 1008.8 1007.2 0.0
29/10:00pm 24.1 26.1 21.6 86 1.7 ENE 13 17 7 9 1008.7 1007.0 0.0
29/09:30pm 24.9 26.8 21.4 81 2.3 E 13 17 7 9 1008.6 1006.9 0.0
29/09:00pm 25.3 26.5 21.4 79 2.6 E 17 20 9 11 1008.1 1006.4 0.0
29/08:30pm 27.0 27.9 21.5 72 3.7 ESE 19 28 10 15 1007.5 1005.9 0.0
29/08:00pm 26.6 27.5 20.9 71 3.8 SE 17 22 9 12 1006.8 1005.2 0.0
29/07:30pm 27.2 27.8 21.0 69 4.1 SE 19 24 10 13 1006.6 1005.0 0.0
29/07:00pm 27.9 27.5 21.0 66 4.6 SE 24 30 13 16 1006.3 1004.7 0.0
29/06:30pm 28.7 28.8 20.4 60 5.5 SE 20 28 11 15 1005.8 1004.2 0.0
29/06:00pm 29.7 30.0 20.8 58 6.0 SE 20 28 11 15 1005.3 1003.7 0.0
29/05:30pm 29.6 29.4 20.5 58 6.1 ESE 22 32 12 17 1004.9 1003.3 0.0
29/05:00pm 29.6 29.8 21.3 61 5.6 SE 22 30 12 16 1004.5 1002.8 0.0
29/04:30pm 29.9 30.2 20.7 57 6.2 SE 20 28 11 15 1004.4 1002.7 0.0
29/04:00pm 30.3 30.1 20.5 55 6.6 SE 22 30 12 16 1004.5 1002.8 0.0
29/03:30pm 31.0 31.4 20.9 55 6.8 ESE 20 28 11 15 1004.5 1002.8 0.0
29/03:00pm 31.1 32.1 22.1 58 6.2 SE 20 26 11 14 1004.6 1002.9 0.0
29/02:30pm 30.7 31.8 22.3 61 5.8 ESE 20 33 11 18 1004.8 1003.1 0.0
29/02:00pm 30.4 31.5 22.0 60 5.7 ESE 19 26 10 14 1005.2 1003.6 0.0
29/01:30pm 29.9 31.3 22.9 66 4.8 SE 20 26 11 14 1005.4 1003.8 0.0
29/01:00pm 29.1 30.4 22.3 66 4.7 SE 19 28 10 15 1005.7 1004.1 0.0
29/12:30pm 29.3 30.5 22.5 67 4.7 ESE 20 28 11 15 1006.1 1004.5 0.0
29/12:00pm 27.9 28.5 21.4 67 4.4 ESE 20 24 11 13 1006.4 1004.8 0.0
29/11:30am 28.2 29.6 22.9 73 3.6 ESE 20 32 11 17 1006.6 1005.0 0.0
29/11:00am 26.8 27.3 22.0 75 3.3 SE 22 30 12 16 1006.9 1005.3 0.0
29/10:30am 27.1 27.8 22.3 75 3.3 ESE 22 28 12 15 1006.9 1005.3 0.0
29/10:00am 25.9 26.7 21.8 78 2.8 ESE 20 28 11 15 1007.1 1005.5 0.0
29/09:30am 25.5 26.2 21.6 79 2.6 ESE 20 28 11 15 1006.9 1005.3 0.0
29/09:00am 25.2 25.9 21.5 80 2.5 SE 20 30 11 16 1006.9 1005.3 0.0
29/08:30am 25.3 25.4 21.2 78 2.7 ESE 22 28 12 15 1006.7 1005.1 0.0
29/08:14am 25.2 25.4 21.3 79 2.6 ESE 22 28 12 15 1006.7 1005.1 0.0
29/08:00am 24.3 24.5 20.6 80 2.4 ESE 20 28 11 15 1006.7 1005.1 0.0
29/07:35am 24.1 24.1 21.0 83 2.1 ESE 22 28 12 15 1006.7 1005.1 0.0
29/07:30am 23.8 23.3 20.7 83 2.0 SE 24 28 13 15 1006.7 1005.1 0.0
29/07:00am 23.5 23.9 20.6 84 1.9 SE 19 26 10 14 1006.4 1004.8 0.0
29/06:30am 22.6 23.3 20.5 88 1.4 SE 17 26 9 14 1006.2 1004.6 0.0
29/06:00am 22.6 23.7 21.2 92 0.9 SE 17 20 9 11 1005.6 1004.0 0.0
29/05:30am 22.7 24.3 21.5 93 0.8 E 15 20 8 11 1004.8 1003.1 0.0
29/05:00am 22.9 24.1 21.5 92 0.9 ESE 17 20 9 11 1004.3 1002.6 0.0
29/04:30am 23.2 24.1 21.5 90 1.1 ESE 19 22 10 12 1004.1 1002.4 0.0
29/04:07am 23.5 24.9 21.9 91 1.1 SE 17 20 9 11 1004.4 1002.7 0.0
29/04:00am 23.4 24.8 21.8 91 1.1 SE 17 24 9 13 1004.3 1002.6 0.0
29/03:30am 23.0 24.5 22.0 94 0.7 SSE 17 22 9 12 1004.2 1002.5 0.0
29/03:22am 22.8 24.6 21.8 94 0.7 S 15 20 8 11 1004.2 1002.5 0.0
29/03:00am 22.4 24.0 21.4 94 0.7 SE 15 19 8 10 1003.9 1002.2 0.0
29/02:30am 22.5 24.4 21.3 93 0.8 SE 13 17 7 9 1003.5 1001.8 0.0
29/02:00am 22.7 25.0 21.3 92 0.9 SE 11 13 6 7 1003.9 1002.2 0.0
29/01:30am 22.5 24.4 21.3 93 0.8 SE 13 19 7 10 1004.2 1002.5 0.0
29/01:00am 21.9 24.2 20.7 93 0.8 SE 9 13 5 7 1004.2 1002.5 0.0
29/12:30am 22.1 23.6 20.6 91 1.0 ESE 13 15 7 8 1004.4 1002.7 0.0
29/12:00am 22.2 24.0 20.3 89 1.2 ESE 11 15 6 8 1004.8 1003.1 0.0
 
Date/Time
EST
Temp
°C
App
Temp
°C
Dew
Point
Rel
Hum
%
Delta-T
°C
Wind Press
QNH
hPa
Press
MSL
hPa
Rain
since 9 am
mm
Dir
 
Spd
km/h
Gust
km/h
Spd
kts
Gust
kts
28/11:30pm 22.9 23.8 20.1 84 1.8 ESE 15 22 8 12 1005.2 1003.6 0.0
28/11:00pm 23.9 24.6 22.2 90 1.1 ESE 22 33 12 18 1005.6 1004.0 0.0
28/10:30pm 23.5 24.4 21.9 91 1.1 SE 20 24 11 13 1005.6 1004.0 0.0
28/10:00pm 23.1 24.3 21.5 91 1.1 SE 17 24 9 13 1005.2 1003.6 0.0
28/09:30pm 23.0 23.6 21.1 89 1.3 SE 19 26 10 14 1005.1 1003.5 0.0
28/09:00pm 22.8 23.5 20.5 87 1.5 SE 17 24 9 13 1004.6 1002.9 0.0
28/08:30pm 22.9 22.9 20.2 85 1.8 ESE 20 30 11 16 1003.8 1002.1 0.0
28/08:00pm 23.4 22.2 20.0 81 2.2 SE 26 35 14 19 1004.1 1002.4 0.0
28/07:30pm 24.4 22.1 20.5 79 2.6 SSE 33 44 18 24 1003.4 1001.7 0.0
28/07:00pm 27.8 26.3 21.8 70 4.1 SE 32 41 17 22 1002.1 1000.5 0.0
28/06:30pm 29.5 28.7 23.0 68 4.5 SE 32 39 17 21 1001.0 999.4 0.0
28/06:27pm 29.6 29.4 22.8 67 4.7 ESE 28 39 15 21 1000.8 999.1 0.0

Other Formats:

Comma delimited format used in spreadsheet applications
http://www.bom.gov.au/fwo/IDQ60801/IDQ60801.94397.axf

JavaScript Object Notation format (JSON) in row-major order
http://www.bom.gov.au/fwo/IDQ60801/IDQ60801.94397.json